Mooresville, North Carolina
Current Conditions -  °F | °C
As of 2:35 AM on Wednesday 22 Oct 2014 (Local Time) from KJQF Reporting Station
Clear Clear  
Wind Chill: 50°   Ceiling: Unl
Heat Index: 50°   Visibility: 10mi
Dew Point: 37°   Wind: 7mph
Humidity: 62%   Direction: 330°NNW
Pressure: 30.02"   Gusts: NA
Location:  35.58°N, 80.81°W
Report Text: KJQF 220635Z AUTO 33006KT 10SM CLR 10/03 A3002 RMK AO2
Loading
Personal Weather Stations






























Interactive Weather Map
Tropical Storm Tracking
New forecast layout! Learn more

10-Day Weather Forecast

Advertisements
Track Severe Weather on mobile